Little Fort, Canada
Current Conditions -  °F | °C
As of 2:00 AM on Sunday 23 Nov 2014 (Local Time) from CYKA Reporting Station
Scattered Clouds Scattered Clouds  
Wind Chill: 27°   Ceiling: Unl
Heat Index: 27°   Visibility: 40mi
Dew Point: 27°   Wind: 3mph
Humidity: 100%   Direction: 80°E
Pressure: 29.97"   Gusts: NA
Location:  51.43°N, 120.2°W
Report Text: CYKA 231000Z 08003KT 40SM FEW012 SCT250 M03/M03 A2997 RMK SF1CI3 SF TR SLP164
Loading
Personal Weather Stations






























Interactive Weather Map New forecast layout! Learn more

10-Day Weather Forecast

Advertisements
Track Severe Weather on mobile